Time;durP1;ratioP1;P1;durP2;ratioP2;P2;SDS_P1;SDS_P2;PMS_P1;PMS_P2;Temp;Humidity;BMP_temperature;BMP_pressure;BME280_temperature;BME280_humidity;BME280_pressure;Samples;Min_cycle;Max_cycle;Signal;HPM_P1;HPM_P2
2022/11/07 00:00:57;;;;;;;8.02;2.90;;;12.80;79.50;;;;;;5034318;28;20022;-63
2022/11/07 00:03:23;;;;;;;8.90;2.53;;;12.80;79.50;;;;;;5025063;28;20030;-63
2022/11/07 00:05:48;;;;;;;6.55;2.53;;;12.80;79.50;;;;;;5034082;28;20029;-63
2022/11/07 00:08:14;;;;;;;8.80;2.60;;;12.80;79.50;;;;;;5011702;28;20022;-63
2022/11/07 00:10:40;;;;;;;5.63;2.50;;;12.80;79.50;;;;;;5012917;28;20049;-63
2022/11/07 00:13:05;;;;;;;10.18;2.60;;;12.80;79.50;;;;;;5017874;28;20112;-63
2022/11/07 00:15:31;;;;;;;6.47;2.47;;;12.90;79.50;;;;;;5027571;28;20100;-63
2022/11/07 00:17:57;;;;;;;9.25;3.03;;;12.80;79.50;;;;;;5016094;28;20340;-63
2022/11/07 00:20:23;;;;;;;8.98;3.03;;;12.80;79.60;;;;;;5021263;28;20030;-63
2022/11/07 00:22:49;;;;;;;6.68;2.53;;;12.80;79.60;;;;;;5026956;28;20038;-63
2022/11/07 00:25:14;;;;;;;9.85;3.20;;;12.80;79.70;;;;;;5026712;28;20187;-63
2022/11/07 00:27:40;;;;;;;6.80;2.47;;;12.80;79.70;;;;;;5015536;28;20099;-63
2022/11/07 00:30:06;;;;;;;7.90;2.95;;;12.80;79.70;;;;;;5025681;28;20101;-63
2022/11/07 00:32:31;;;;;;;5.63;2.65;;;12.80;79.80;;;;;;5032866;28;20370;-63
2022/11/07 00:34:59;;;;;;;7.78;2.35;;;12.80;79.80;;;;;;5024253;28;20029;-63
2022/11/07 00:37:24;;;;;;;7.65;2.65;;;12.80;79.90;;;;;;5036948;28;20044;-63
2022/11/07 00:39:50;;;;;;;7.28;2.60;;;12.80;79.90;;;;;;5022514;28;20037;-63
2022/11/07 00:42:16;;;;;;;7.75;2.67;;;12.80;79.90;;;;;;5027841;28;20029;-63
2022/11/07 00:44:41;;;;;;;6.05;2.13;;;12.80;79.80;;;;;;5035627;28;20057;-63
2022/11/07 00:47:07;;;;;;;7.65;2.72;;;12.80;79.70;;;;;;5027871;28;20087;-63
2022/11/07 00:49:33;;;;;;;6.50;2.58;;;12.80;79.70;;;;;;5019793;28;20039;-63
2022/11/07 00:51:59;;;;;;;7.00;2.70;;;12.80;79.70;;;;;;5038936;28;20038;-63
2022/11/07 00:54:24;;;;;;;7.32;2.85;;;12.90;79.80;;;;;;5023726;28;20028;-63
2022/11/07 00:56:50;;;;;;;9.02;2.25;;;12.90;79.70;;;;;;5039877;28;20447;-63
2022/11/07 00:59:15;;;;;;;7.90;2.63;;;12.90;79.70;;;;;;5017487;28;20462;-63
2022/11/07 01:01:41;;;;;;;7.88;2.83;;;12.90;79.70;;;;;;5032680;28;20079;-63
2022/11/07 01:06:55;;;;;;;8.10;2.65;;;12.90;79.80;;;;;;5037100;28;20086;-63
2022/11/07 01:09:20;;;;;;;6.72;2.40;;;12.80;79.70;;;;;;5019731;28;20038;-63
2022/11/07 01:11:47;;;;;;;5.93;2.65;;;12.90;79.80;;;;;;5027183;28;20082;-63
2022/11/07 01:14:14;;;;;;;8.88;2.72;;;12.90;79.80;;;;;;5028358;28;20516;-63
2022/11/07 01:16:40;;;;;;;7.25;2.55;;;12.90;79.90;;;;;;5036831;28;20036;-63
2022/11/07 01:19:07;;;;;;;6.70;2.20;;;12.90;79.80;;;;;;5023752;28;20041;-63
2022/11/07 01:21:33;;;;;;;6.15;2.33;;;12.90;79.90;;;;;;5022068;28;20454;-63
2022/11/07 01:24:00;;;;;;;6.43;2.25;;;12.80;79.90;;;;;;5028792;28;20044;-63
2022/11/07 01:26:25;;;;;;;7.10;2.78;;;12.80;79.90;;;;;;5027365;28;20041;-63
2022/11/07 01:28:51;;;;;;;8.98;2.20;;;12.90;79.90;;;;;;5017265;28;20049;-63
2022/11/07 01:31:17;;;;;;;8.05;2.78;;;12.90;79.90;;;;;;5018534;28;20109;-63
2022/11/07 01:33:43;;;;;;;6.25;2.10;;;12.90;79.90;;;;;;5032180;28;20065;-63
2022/11/07 01:36:13;;;;;;;8.80;2.55;;;12.90;79.90;;;;;;5045028;28;20481;-63
2022/11/07 01:38:41;;;;;;;8.15;2.75;;;12.90;79.90;;;;;;5025837;28;20025;-63
2022/11/07 01:41:23;;;;;;;7.75;2.25;;;12.90;79.90;;;;;;5021474;28;20100;-63
2022/11/07 01:43:50;;;;;;;5.40;2.15;;;12.90;79.90;;;;;;5016979;28;20030;-63
2022/11/07 01:46:16;;;;;;;5.80;2.40;;;12.90;79.90;;;;;;5016072;28;20057;-63
2022/11/07 01:48:47;;;;;;;7.40;2.50;;;12.90;80.20;;;;;;5020527;28;20439;-63
2022/11/07 01:51:13;;;;;;;6.68;2.30;;;12.90;80.00;;;;;;5016032;28;20044;-63
2022/11/07 01:53:40;;;;;;;6.20;2.00;;;12.90;80.00;;;;;;5030823;28;20065;-63
2022/11/07 01:56:11;;;;;;;7.72;2.85;;;12.90;80.00;;;;;;5025700;28;20087;-63
2022/11/07 01:58:37;;;;;;;10.38;2.70;;;12.90;80.00;;;;;;5021134;28;20031;-63
2022/11/07 02:01:03;;;;;;;6.18;2.20;;;12.90;80.00;;;;;;5026107;28;20346;-63
2022/11/07 02:03:29;;;;;;;5.25;2.00;;;12.90;80.00;;;;;;5017598;28;20036;-63
2022/11/07 02:06:00;;;;;;;6.53;2.20;;;12.90;80.00;;;;;;5022246;28;20033;-63
2022/11/07 02:08:29;;;;;;;5.65;2.00;;;12.90;80.10;;;;;;5019434;28;20022;-63
2022/11/07 02:10:56;;;;;;;6.97;2.30;;;12.90;80.10;;;;;;5020644;28;20466;-63
2022/11/07 02:13:27;;;;;;;6.97;2.20;;;12.90;80.10;;;;;;5030073;28;20097;-63
2022/11/07 02:15:53;;;;;;;6.75;2.33;;;12.90;80.10;;;;;;5021587;28;20033;-64
2022/11/07 02:18:21;;;;;;;6.63;2.22;;;12.90;80.00;;;;;;5025367;28;20037;-63
2022/11/07 02:20:47;;;;;;;6.13;2.25;;;12.90;80.00;;;;;;5020042;28;20068;-63
2022/11/07 02:23:43;;;;;;;7.10;2.70;;;12.90;80.00;;;;;;5025506;28;20030;-63
2022/11/07 02:26:09;;;;;;;6.45;2.17;;;12.90;80.10;;;;;;5017319;28;20041;-63
2022/11/07 02:28:36;;;;;;;6.43;2.13;;;12.90;80.00;;;;;;5024984;28;20481;-63
2022/11/07 02:31:02;;;;;;;6.80;2.22;;;12.90;80.10;;;;;;5020464;28;20026;-63
2022/11/07 02:33:27;;;;;;;7.75;2.35;;;12.90;80.00;;;;;;5025480;28;20101;-64
2022/11/07 02:35:53;;;;;;;6.50;2.20;;;12.90;80.00;;;;;;5018238;28;20036;-63
2022/11/07 02:38:20;;;;;;;9.32;2.97;;;12.90;80.10;;;;;;5032819;28;20025;-63
2022/11/07 02:40:52;;;;;;;9.60;2.10;;;12.90;80.10;;;;;;5023126;28;20022;-63
2022/11/07 02:43:20;;;;;;;5.05;2.08;;;12.90;80.20;;;;;;5015157;28;20021;-63
2022/11/07 02:45:48;;;;;;;7.45;2.80;;;12.80;80.20;;;;;;5014013;28;20112;-63
2022/11/07 02:48:14;;;;;;;7.18;2.67;;;12.90;80.30;;;;;;5022597;28;20357;-63
2022/11/07 02:50:41;;;;;;;4.75;2.00;;;12.90;80.40;;;;;;5013868;28;20117;-63
2022/11/07 02:53:06;;;;;;;6.00;2.20;;;12.90;80.40;;;;;;5016419;28;20431;-63
2022/11/07 02:55:32;;;;;;;6.90;2.50;;;12.80;80.30;;;;;;5027083;28;20033;-63
2022/11/07 02:57:58;;;;;;;5.70;2.00;;;12.90;80.40;;;;;;5019046;28;20042;-63
2022/11/07 03:00:23;;;;;;;8.00;3.05;;;12.80;80.40;;;;;;5013641;28;20030;-63
2022/11/07 03:02:49;;;;;;;7.70;2.28;;;12.80;80.40;;;;;;5034878;28;20029;-63
2022/11/07 03:05:17;;;;;;;7.80;2.42;;;12.80;80.40;;;;;;5027925;28;20022;-63
2022/11/07 03:07:44;;;;;;;6.90;2.13;;;12.80;80.40;;;;;;5017349;28;20110;-63
2022/11/07 03:10:10;;;;;;;7.63;2.33;;;12.80;80.40;;;;;;5019011;28;20037;-63
2022/11/07 03:12:36;;;;;;;7.22;2.75;;;12.80;80.50;;;;;;5034028;28;20056;-63
2022/11/07 03:15:04;;;;;;;7.05;2.50;;;12.80;80.50;;;;;;5026539;28;20362;-63
2022/11/07 03:17:29;;;;;;;6.00;2.28;;;12.80;80.50;;;;;;5008208;28;20351;-63
2022/11/07 03:19:55;;;;;;;6.63;2.42;;;12.80;80.60;;;;;;5024794;28;20033;-63
2022/11/07 03:22:20;;;;;;;8.93;2.67;;;12.70;80.60;;;;;;5016222;28;20412;-63
2022/11/07 03:24:46;;;;;;;7.18;2.70;;;12.80;80.60;;;;;;5025307;28;20029;-63
2022/11/07 03:27:12;;;;;;;6.18;2.10;;;12.80;80.70;;;;;;5032512;28;20034;-63
2022/11/07 03:29:37;;;;;;;7.75;2.38;;;12.80;80.70;;;;;;5018633;28;20022;-63
2022/11/07 03:32:03;;;;;;;6.53;2.88;;;12.80;80.70;;;;;;5027594;28;20481;-63
2022/11/07 03:34:29;;;;;;;7.82;3.13;;;12.80;80.70;;;;;;5025608;28;20040;-63
2022/11/07 03:36:54;;;;;;;11.52;2.60;;;12.80;80.70;;;;;;5020949;28;20352;-63
2022/11/07 03:39:20;;;;;;;4.97;2.10;;;12.80;80.70;;;;;;5031815;28;20013;-63
2022/11/07 03:41:46;;;;;;;12.48;2.90;;;12.80;80.70;;;;;;5031828;28;20033;-63
2022/11/07 03:44:11;;;;;;;8.85;2.17;;;12.80;80.70;;;;;;5018740;28;20029;-63
2022/11/07 03:46:37;;;;;;;8.40;2.55;;;12.80;80.70;;;;;;5013906;28;20467;-63
2022/11/07 03:49:02;;;;;;;5.75;2.20;;;12.80;80.70;;;;;;5025001;28;20144;-63
2022/11/07 03:51:28;;;;;;;6.75;2.00;;;12.80;81.40;;;;;;5017969;28;20026;-63
2022/11/07 03:53:54;;;;;;;8.48;2.38;;;12.80;80.70;;;;;;5024433;28;20450;-63
2022/11/07 03:56:19;;;;;;;11.32;3.05;;;12.80;80.80;;;;;;5022760;28;20038;-64
2022/11/07 03:58:45;;;;;;;12.10;2.67;;;12.80;80.80;;;;;;5021810;28;20029;-63
2022/11/07 04:01:12;;;;;;;5.72;1.67;;;12.80;80.80;;;;;;5021745;28;20332;-63
2022/11/07 04:03:37;;;;;;;6.35;2.08;;;12.80;80.80;;;;;;5021211;28;20029;-63
2022/11/07 04:06:03;;;;;;;6.75;2.28;;;12.90;80.80;;;;;;5030969;28;20030;-63
2022/11/07 04:08:29;;;;;;;8.15;2.55;;;12.90;80.90;;;;;;5030762;28;20164;-63
2022/11/07 04:10:54;;;;;;;7.47;2.20;;;12.90;80.90;;;;;;5017421;28;20091;-63
2022/11/07 04:18:48;;;;;;;9.77;2.42;;;12.90;80.80;;;;;;5027375;28;20527;-63
2022/11/07 04:21:14;;;;;;;7.10;1.88;;;12.90;80.80;;;;;;5020659;28;20057;-63
2022/11/07 04:23:40;;;;;;;9.45;2.55;;;12.90;80.90;;;;;;5028507;28;20032;-63
2022/11/07 04:28:49;;;;;;;9.00;2.60;;;12.90;81.00;;;;;;5021212;28;20120;-63
2022/11/07 04:31:15;;;;;;;11.07;2.47;;;12.90;81.10;;;;;;5020834;28;20121;-63
2022/11/07 04:33:41;;;;;;;8.25;2.30;;;12.90;81.10;;;;;;5026343;28;20021;-63
2022/11/07 04:36:06;;;;;;;8.50;2.30;;;12.90;81.00;;;;;;5048822;28;20438;-63
2022/11/07 04:38:32;;;;;;;9.30;2.50;;;12.90;81.00;;;;;;5028250;28;20021;-63
2022/11/07 04:40:58;;;;;;;8.07;2.13;;;12.90;81.00;;;;;;5023572;28;20045;-63
2022/11/07 04:43:25;;;;;;;7.43;2.28;;;12.90;81.00;;;;;;5021349;28;20018;-63
2022/11/07 04:45:51;;;;;;;11.45;2.65;;;12.90;81.10;;;;;;5022335;28;20341;-63
2022/11/07 04:48:17;;;;;;;7.25;2.55;;;13.00;81.10;;;;;;5022857;28;20029;-63
2022/11/07 04:50:43;;;;;;;8.88;2.50;;;12.90;81.00;;;;;;5033238;28;20029;-63
2022/11/07 04:53:14;;;;;;;8.93;2.33;;;13.00;81.10;;;;;;5020451;28;20137;-63
2022/11/07 04:55:40;;;;;;;10.45;2.58;;;13.00;81.10;;;;;;5036115;28;20056;-63
2022/11/07 04:58:06;;;;;;;6.45;2.20;;;13.00;81.10;;;;;;5021953;28;20447;-63
2022/11/07 05:00:31;;;;;;;10.57;2.15;;;13.00;81.10;;;;;;5022056;28;20049;-63
2022/11/07 05:02:57;;;;;;;6.90;2.10;;;13.00;81.00;;;;;;5016042;28;20084;-63
2022/11/07 05:05:23;;;;;;;7.20;2.20;;;13.00;81.10;;;;;;5024288;28;20029;-63
2022/11/07 05:07:49;;;;;;;10.20;2.75;;;13.00;81.10;;;;;;5018817;28;20084;-63
2022/11/07 05:10:21;;;;;;;10.77;2.47;;;13.00;81.10;;;;;;5033839;28;20036;-63
2022/11/07 05:12:47;;;;;;;9.77;2.45;;;13.00;81.10;;;;;;5022488;28;20040;-63
2022/11/07 05:15:13;;;;;;;11.25;2.53;;;13.10;81.10;;;;;;5036048;28;20073;-63
2022/11/07 05:17:39;;;;;;;9.63;2.42;;;13.00;81.10;;;;;;5031400;28;20147;-63
2022/11/07 05:20:05;;;;;;;8.52;2.45;;;13.00;81.70;;;;;;5023246;28;20041;-63
2022/11/07 05:25:16;;;;;;;8.88;2.40;;;13.10;81.20;;;;;;5029628;28;20033;-63
2022/11/07 05:27:42;;;;;;;10.68;2.63;;;13.10;81.20;;;;;;5018444;28;20355;-63
2022/11/07 05:30:09;;;;;;;7.68;2.42;;;13.00;81.20;;;;;;5020351;28;20029;-63
2022/11/07 05:32:37;;;;;;;7.47;2.50;;;13.10;81.20;;;;;;5021314;28;20436;-63
2022/11/07 05:35:04;;;;;;;9.82;2.40;;;13.00;81.20;;;;;;5008561;28;20045;-63
2022/11/07 05:37:30;;;;;;;11.57;2.60;;;13.10;81.30;;;;;;5015410;28;20092;-63
2022/11/07 05:39:55;;;;;;;9.25;2.60;;;13.10;81.30;;;;;;5016363;28;20030;-63
2022/11/07 05:42:21;;;;;;;6.88;2.05;;;13.00;81.30;;;;;;5013840;28;20022;-63
2022/11/07 05:44:47;;;;;;;9.52;2.80;;;13.10;81.30;;;;;;5014978;28;20414;-63
2022/11/07 05:47:12;;;;;;;7.47;2.17;;;13.10;81.20;;;;;;5015519;28;20347;-64
2022/11/07 05:49:38;;;;;;;7.40;1.85;;;13.10;81.20;;;;;;5015442;28;20045;-63
2022/11/07 05:52:04;;;;;;;11.25;2.20;;;13.10;81.10;;;;;;5035201;28;20451;-63
2022/11/07 05:54:31;;;;;;;8.32;2.15;;;13.10;81.10;;;;;;5016542;28;20026;-63
2022/11/07 05:56:57;;;;;;;10.40;2.45;;;13.10;81.10;;;;;;5021985;28;20370;-63
2022/11/07 05:59:23;;;;;;;10.63;2.40;;;13.20;81.20;;;;;;5013741;28;20022;-63
2022/11/07 06:01:49;;;;;;;9.63;2.20;;;13.20;81.10;;;;;;5032745;28;20040;-63
2022/11/07 06:04:14;;;;;;;7.05;2.17;;;13.10;81.10;;;;;;5029594;28;20106;-63
2022/11/07 06:06:40;;;;;;;7.82;2.00;;;13.10;81.10;;;;;;5015624;28;20042;-64
2022/11/07 06:09:06;;;;;;;10.43;2.20;;;13.10;81.10;;;;;;5016566;28;20021;-64
2022/11/07 06:11:32;;;;;;;10.95;2.85;;;13.10;81.10;;;;;;5022228;28;20109;-63
2022/11/07 06:13:58;;;;;;;10.50;2.53;;;13.10;81.10;;;;;;5014271;28;20367;-63
2022/11/07 06:16:23;;;;;;;12.52;2.65;;;13.10;81.10;;;;;;5019702;28;20025;-64
2022/11/07 06:18:49;;;;;;;12.93;2.45;;;13.10;81.10;;;;;;5027739;28;20043;-63
2022/11/07 06:21:15;;;;;;;12.75;2.63;;;13.10;81.10;;;;;;5035738;28;20106;-63
2022/11/07 06:23:41;;;;;;;9.20;2.88;;;13.10;81.70;;;;;;5033369;28;20029;-64
2022/11/07 06:26:07;;;;;;;13.60;2.50;;;13.10;81.10;;;;;;5035791;28;20033;-63
2022/11/07 06:28:33;;;;;;;10.23;2.45;;;13.10;81.00;;;;;;5035906;28;20021;-64
2022/11/07 06:31:03;;;;;;;9.75;2.58;;;13.10;81.00;;;;;;5035763;28;20017;-64
2022/11/07 06:33:29;;;;;;;10.00;2.58;;;13.10;81.00;;;;;;5035109;28;20091;-63
2022/11/07 06:35:55;;;;;;;10.52;1.90;;;13.10;81.00;;;;;;5027130;28;20013;-64
2022/11/07 06:38:20;;;;;;;9.57;2.45;;;13.10;81.00;;;;;;5032053;28;20033;-64
2022/11/07 06:40:46;;;;;;;10.32;2.72;;;13.10;81.00;;;;;;5035680;28;20113;-63
2022/11/07 06:43:14;;;;;;;9.63;2.28;;;13.10;81.00;;;;;;5035349;28;20025;-64
2022/11/07 06:45:41;;;;;;;7.90;2.33;;;13.10;81.00;;;;;;5034450;28;20025;-63
2022/11/07 06:48:07;;;;;;;11.27;3.05;;;13.10;81.00;;;;;;5025575;28;20037;-64
2022/11/07 06:50:33;;;;;;;14.60;2.65;;;13.10;81.00;;;;;;5015929;28;20056;-63
2022/11/07 06:53:04;;;;;;;8.80;2.40;;;13.10;81.00;;;;;;5031728;28;20060;-63
2022/11/07 06:55:30;;;;;;;10.20;2.93;;;13.10;81.00;;;;;;5025248;28;20505;-63
2022/11/07 06:57:59;;;;;;;9.65;2.78;;;13.20;81.00;;;;;;5028043;28;20116;-63
2022/11/07 07:00:30;;;;;;;8.55;1.98;;;13.20;81.00;;;;;;5015254;28;20026;-63
2022/11/07 07:02:56;;;;;;;10.02;2.13;;;13.20;80.90;;;;;;5018272;28;20022;-63
2022/11/07 07:05:22;;;;;;;12.75;2.50;;;13.20;80.90;;;;;;5028921;28;20030;-63
2022/11/07 07:07:48;;;;;;;10.02;2.50;;;13.30;80.90;;;;;;5026982;28;20033;-63
2022/11/07 07:10:14;;;;;;;12.35;2.47;;;13.30;80.80;;;;;;5023671;28;20109;-64
2022/11/07 07:12:40;;;;;;;7.95;2.60;;;13.30;80.80;;;;;;5019738;28;20038;-64
2022/11/07 07:15:07;;;;;;;9.95;2.22;;;13.30;80.80;;;;;;5021720;28;20091;-63
2022/11/07 07:17:32;;;;;;;11.32;2.60;;;13.30;80.70;;;;;;5019956;28;20040;-63
2022/11/07 07:19:58;;;;;;;12.27;2.95;;;13.30;80.70;;;;;;5026356;28;20029;-64
2022/11/07 07:22:24;;;;;;;8.57;2.30;;;13.40;80.70;;;;;;5024576;28;20025;-63
2022/11/07 07:24:52;;;;;;;10.00;3.03;;;13.40;80.70;;;;;;5021857;28;20053;-64
2022/11/07 07:27:19;;;;;;;8.40;2.67;;;13.30;80.70;;;;;;5027831;28;20025;-63
2022/11/07 07:29:46;;;;;;;14.40;3.00;;;13.30;80.60;;;;;;5022870;28;20084;-64
2022/11/07 07:32:11;;;;;;;9.30;2.80;;;13.40;80.70;;;;;;5012248;28;20048;-64
2022/11/07 07:34:37;;;;;;;10.02;2.53;;;13.40;80.70;;;;;;5020189;28;20030;-64
2022/11/07 07:37:03;;;;;;;12.02;2.90;;;13.40;80.60;;;;;;5017213;28;20041;-63
2022/11/07 07:39:29;;;;;;;10.27;2.42;;;13.40;80.60;;;;;;5021410;28;20159;-63
2022/11/07 07:41:55;;;;;;;8.73;1.98;;;13.40;80.60;;;;;;5015648;28;20041;-63
2022/11/07 07:44:22;;;;;;;7.70;2.42;;;13.40;80.50;;;;;;5020040;28;20029;-63
2022/11/07 07:46:48;;;;;;;12.95;3.28;;;13.40;80.50;;;;;;5020853;28;20514;-63
2022/11/07 07:49:14;;;;;;;11.27;3.00;;;13.40;80.50;;;;;;5020983;28;20030;-63
2022/11/07 07:51:39;;;;;;;7.10;2.33;;;13.50;80.60;;;;;;5021323;28;20053;-63
2022/11/07 07:54:05;;;;;;;8.15;2.50;;;13.50;80.60;;;;;;5020560;28;20029;-63
2022/11/07 07:56:31;;;;;;;10.27;2.65;;;13.50;80.50;;;;;;5051242;28;20037;-63
2022/11/07 07:58:56;;;;;;;11.50;2.38;;;13.60;80.50;;;;;;5033604;28;20033;-63
2022/11/07 08:01:22;;;;;;;11.02;2.50;;;13.60;80.50;;;;;;5033789;28;20029;-64
2022/11/07 08:03:48;;;;;;;8.00;2.55;;;13.60;80.50;;;;;;5024020;28;20044;-63
2022/11/07 08:06:14;;;;;;;8.90;2.40;;;13.60;80.40;;;;;;5025320;28;20030;-63
2022/11/07 08:08:40;;;;;;;9.25;2.05;;;13.60;80.40;;;;;;5037419;28;20026;-63
2022/11/07 08:11:08;;;;;;;11.25;3.03;;;13.70;80.40;;;;;;5034537;28;20116;-63
2022/11/07 08:13:35;;;;;;;12.02;2.22;;;13.70;80.40;;;;;;5037057;28;20320;-63
2022/11/07 08:16:02;;;;;;;7.55;2.35;;;13.70;80.30;;;;;;5035684;28;20034;-63
2022/11/07 08:18:28;;;;;;;11.40;2.60;;;13.70;80.30;;;;;;5022832;28;20037;-64
2022/11/07 08:20:54;;;;;;;7.22;2.50;;;13.80;80.30;;;;;;5019659;28;20049;-64
2022/11/07 08:23:21;;;;;;;9.02;2.55;;;13.80;80.10;;;;;;5029970;28;20017;-63
2022/11/07 08:25:51;;;;;;;13.40;2.60;;;13.90;80.10;;;;;;5018975;28;20037;-63
2022/11/07 08:28:17;;;;;;;10.27;3.05;;;13.90;80.00;;;;;;5023935;28;20113;-63
2022/11/07 08:30:42;;;;;;;8.57;2.13;;;13.90;79.90;;;;;;5018815;28;20132;-63
2022/11/07 08:33:08;;;;;;;7.70;2.03;;;14.00;79.90;;;;;;5029331;28;20477;-63
2022/11/07 08:35:34;;;;;;;9.85;3.20;;;14.10;79.80;;;;;;5019325;28;20349;-64
2022/11/07 08:37:59;;;;;;;8.48;2.30;;;14.10;79.70;;;;;;5017884;28;20030;-63
2022/11/07 08:40:26;;;;;;;8.15;2.35;;;14.20;79.50;;;;;;5031501;28;20026;-64
2022/11/07 08:42:51;;;;;;;6.75;1.88;;;14.30;79.30;;;;;;5028800;28;20113;-64
2022/11/07 08:45:17;;;;;;;12.52;2.63;;;14.40;79.20;;;;;;5019604;28;20026;-64
2022/11/07 08:47:43;;;;;;;10.48;2.47;;;14.50;79.00;;;;;;5028620;28;20083;-62
2022/11/07 08:50:09;;;;;;;11.82;2.40;;;14.50;78.80;;;;;;5027992;28;20033;-63
2022/11/07 08:52:35;;;;;;;8.90;2.20;;;14.60;78.80;;;;;;5031641;28;20426;-62
2022/11/07 08:55:02;;;;;;;5.47;2.08;;;14.60;78.60;;;;;;5034499;28;20041;-62
2022/11/07 08:57:28;;;;;;;7.85;2.25;;;14.70;78.70;;;;;;5026922;28;20037;-62
2022/11/07 08:59:54;;;;;;;9.63;2.92;;;14.70;78.50;;;;;;5036355;28;20051;-62
2022/11/07 09:02:20;;;;;;;10.02;2.33;;;14.80;78.40;;;;;;5020774;28;20057;-63
2022/11/07 09:04:45;;;;;;;11.15;2.35;;;14.80;78.20;;;;;;5026240;28;20454;-63
2022/11/07 09:07:11;;;;;;;7.30;2.30;;;14.80;78.20;;;;;;5021994;28;20026;-62
2022/11/07 09:09:37;;;;;;;8.15;2.45;;;14.80;78.20;;;;;;5033635;28;20037;-63
2022/11/07 09:12:02;;;;;;;7.47;2.10;;;14.80;78.30;;;;;;5023680;28;20499;-63
2022/11/07 09:14:28;;;;;;;9.45;2.05;;;14.80;78.40;;;;;;5036719;28;20040;-63
2022/11/07 09:16:54;;;;;;;11.77;2.60;;;14.70;78.30;;;;;;5036461;28;20068;-63
2022/11/07 09:19:19;;;;;;;9.88;2.92;;;14.70;78.40;;;;;;5036748;28;20053;-63
2022/11/07 09:21:47;;;;;;;9.38;2.08;;;14.70;78.40;;;;;;5018907;28;20042;-63
2022/11/07 09:24:13;;;;;;;9.00;2.58;;;14.60;78.50;;;;;;5028117;28;20123;-64
2022/11/07 09:26:38;;;;;;;9.35;2.45;;;14.60;78.60;;;;;;5030116;28;20084;-64
2022/11/07 09:29:04;;;;;;;15.32;2.78;;;14.70;78.80;;;;;;5033316;28;20064;-63
2022/11/07 09:31:29;;;;;;;9.18;2.35;;;14.70;78.80;;;;;;5024676;28;20106;-63
2022/11/07 09:33:55;;;;;;;7.43;2.15;;;14.70;78.70;;;;;;5022177;28;20439;-64
2022/11/07 09:36:22;;;;;;;10.50;2.50;;;14.60;78.60;;;;;;5032250;28;20030;-63
2022/11/07 09:38:48;;;;;;;9.10;2.20;;;14.70;78.70;;;;;;5016235;28;20025;-63
2022/11/07 09:41:34;;;;;;;8.20;2.53;;;14.70;78.70;;;;;;5030604;28;20103;-63
2022/11/07 09:44:22;;;;;;;9.73;1.80;;;14.70;78.70;;;;;;5008888;28;20131;-63
2022/11/07 09:47:33;;;;;;;7.70;1.85;;;14.70;78.60;;;;;;5023013;28;20041;-64
2022/11/07 09:50:04;;;;;;;9.48;2.33;;;14.70;78.60;;;;;;5006267;28;20029;-63
2022/11/07 09:52:30;;;;;;;9.95;2.00;;;14.70;78.70;;;;;;5005122;28;20129;-64
2022/11/07 09:55:06;;;;;;;7.75;1.92;;;14.70;78.80;;;;;;4993255;28;20099;-63
2022/11/07 09:57:34;;;;;;;6.90;1.90;;;14.70;78.80;;;;;;4999511;28;20042;-63
2022/11/07 10:00:09;;;;;;;8.80;2.22;;;14.70;78.70;;;;;;5008780;28;20088;-63
2022/11/07 10:02:39;;;;;;;5.85;1.50;;;14.70;78.70;;;;;;4998082;28;20031;-63
2022/11/07 10:05:05;;;;;;;8.27;2.00;;;14.70;78.70;;;;;;5002720;28;20039;-63
2022/11/07 10:07:38;;;;;;;9.98;2.35;;;14.70;78.70;;;;;;5004791;28;20450;-63
2022/11/07 10:10:24;;;;;;;7.47;1.85;;;14.70;78.70;;;;;;5002101;28;20062;-63
2022/11/07 10:13:20;;;;;;;11.65;2.28;;;14.70;78.80;;;;;;5012363;28;20053;-64
2022/11/07 10:16:11;;;;;;;9.50;2.50;;;14.70;78.90;;;;;;4996149;28;20034;-64
2022/11/07 10:18:54;;;;;;;8.55;1.92;;;14.60;78.80;;;;;;5010012;28;20050;-63
2022/11/07 10:21:20;;;;;;;8.75;2.03;;;14.70;78.90;;;;;;4991115;28;20042;-63
2022/11/07 10:23:49;;;;;;;10.75;2.83;;;14.70;78.90;;;;;;5015437;28;20044;-64
2022/11/07 10:26:20;;;;;;;14.02;2.13;;;14.70;79.00;;;;;;5031492;28;20091;-64
2022/11/07 10:28:54;;;;;;;10.32;2.08;;;14.70;79.10;;;;;;5031179;28;20049;-64
2022/11/07 10:31:20;;;;;;;7.75;2.00;;;14.60;79.00;;;;;;5019083;28;20358;-64
2022/11/07 10:33:55;;;;;;;9.70;1.90;;;14.60;79.10;;;;;;5017970;28;20025;-63
2022/11/07 10:36:21;;;;;;;8.95;2.33;;;14.60;79.20;;;;;;5032316;28;20299;-63
2022/11/07 10:38:46;;;;;;;11.02;2.58;;;14.60;79.30;;;;;;5029324;28;20060;-64
2022/11/07 10:41:27;;;;;;;9.27;2.20;;;14.60;79.30;;;;;;5032597;28;20017;-64
2022/11/07 10:43:59;;;;;;;7.03;2.70;;;14.70;79.30;;;;;;5018559;28;20030;-64
2022/11/07 10:46:39;;;;;;;11.18;2.20;;;14.70;79.30;;;;;;5010226;28;20033;-64
2022/11/07 10:49:19;;;;;;;7.55;2.03;;;14.70;79.30;;;;;;5026839;28;20401;-63
2022/11/07 10:51:46;;;;;;;9.63;2.58;;;14.70;79.30;;;;;;5030757;28;20072;-64
2022/11/07 10:54:24;;;;;;;9.27;2.35;;;14.70;79.30;;;;;;5023791;28;20376;-64
2022/11/07 10:57:04;;;;;;;9.32;2.60;;;14.70;79.40;;;;;;5023433;28;20034;-64
2022/11/07 10:59:32;;;;;;;11.38;2.28;;;14.70;79.40;;;;;;5016927;28;20022;-67
2022/11/07 11:01:59;;;;;;;11.60;2.92;;;14.70;79.30;;;;;;5017821;28;20022;-63
2022/11/07 11:04:31;;;;;;;9.85;2.75;;;14.70;79.30;;;;;;5029627;28;20040;-64
2022/11/07 11:07:09;;;;;;;15.18;3.00;;;14.80;79.20;;;;;;5029627;28;20068;-63
2022/11/07 11:09:35;;;;;;;6.90;2.25;;;14.80;79.20;;;;;;5029214;28;20022;-64
2022/11/07 11:12:06;;;;;;;10.88;2.45;;;14.80;79.10;;;;;;5034040;28;20378;-63
2022/11/07 11:14:31;;;;;;;8.48;2.92;;;14.90;79.10;;;;;;5010807;28;20029;-63
2022/11/07 11:16:57;;;;;;;11.98;3.55;;;14.90;78.90;;;;;;5013700;28;20025;-64
2022/11/07 11:19:32;;;;;;;11.23;2.60;;;14.90;78.90;;;;;;5014494;28;20474;-63
2022/11/07 11:21:58;;;;;;;8.52;2.30;;;15.00;78.90;;;;;;5028042;28;20125;-64
2022/11/07 11:24:38;;;;;;;9.23;2.47;;;15.00;78.80;;;;;;5012918;28;20428;-64
2022/11/07 11:27:17;;;;;;;8.48;2.15;;;15.00;78.70;;;;;;5011280;28;20025;-64
2022/11/07 11:30:07;;;;;;;8.90;2.30;;;15.00;78.60;;;;;;5012365;28;20042;-64
2022/11/07 11:32:41;;;;;;;10.43;2.42;;;15.00;78.60;;;;;;5012538;28;20060;-64
2022/11/07 11:35:25;;;;;;;13.15;3.42;;;15.00;78.60;;;;;;5013068;28;20108;-64
2022/11/07 11:37:59;;;;;;;7.68;2.60;;;15.10;78.60;;;;;;5014738;28;20021;-65
2022/11/07 11:40:30;;;;;;;11.55;2.20;;;15.10;78.60;;;;;;5013936;28;20474;-64
2022/11/07 11:43:06;;;;;;;8.87;2.30;;;15.00;78.50;;;;;;5014104;28;20025;-65
2022/11/07 11:45:45;;;;;;;10.82;2.47;;;15.10;78.50;;;;;;5014125;28;20029;-65
2022/11/07 11:48:26;;;;;;;10.57;2.38;;;15.10;78.60;;;;;;5012521;28;20034;-64
2022/11/07 11:51:28;;;;;;;10.32;2.10;;;15.00;78.50;;;;;;5009137;28;20458;-64
2022/11/07 11:53:53;;;;;;;8.32;2.47;;;15.00;78.60;;;;;;5010462;28;20041;-64
2022/11/07 11:56:29;;;;;;;8.23;2.63;;;15.10;78.50;;;;;;5013937;28;20114;-64
2022/11/07 11:58:55;;;;;;;12.48;2.63;;;15.20;78.50;;;;;;5013170;28;20084;-64
2022/11/07 12:01:47;;;;;;;11.80;2.85;;;15.20;78.40;;;;;;5013430;28;20038;-64
2022/11/07 12:04:57;;;;;;;12.13;2.67;;;15.30;78.30;;;;;;5012101;28;20042;-65
2022/11/07 12:07:35;;;;;;;11.05;2.65;;;15.30;78.40;;;;;;5006516;28;20120;-65
2022/11/07 12:10:11;;;;;;;8.25;2.47;;;15.30;78.00;;;;;;5013126;28;20477;-64
2022/11/07 12:13:15;;;;;;;12.43;3.08;;;15.30;77.90;;;;;;5025778;28;20033;-65
2022/11/07 12:15:49;;;;;;;5.85;1.88;;;15.40;77.90;;;;;;4971488;28;20042;-65
2022/11/07 12:18:30;;;;;;;13.50;2.80;;;15.40;77.80;;;;;;4972940;28;20039;-64
2022/11/07 12:21:03;;;;;;;8.80;2.50;;;15.40;77.80;;;;;;4972094;28;20065;-64
2022/11/07 12:23:44;;;;;;;8.88;2.60;;;15.40;77.70;;;;;;4972657;28;20034;-65
2022/11/07 12:26:34;;;;;;;9.70;2.67;;;15.40;77.70;;;;;;4975424;28;20034;-64
2022/11/07 12:29:42;;;;;;;8.02;2.55;;;15.40;77.70;;;;;;4972417;28;20101;-64
2022/11/07 12:32:31;;;;;;;8.75;2.65;;;15.40;77.60;;;;;;4916156;29;20555;-64
2022/11/07 12:35:34;;;;;;;14.70;2.45;;;15.40;77.50;;;;;;4916886;29;20373;-65
2022/11/07 12:38:13;;;;;;;7.13;2.65;;;15.40;77.40;;;;;;4917839;29;20666;-64
2022/11/07 12:41:16;;;;;;;9.63;3.00;;;15.50;77.50;;;;;;4920989;29;20076;-65
2022/11/07 12:44:08;;;;;;;12.57;2.55;;;15.50;77.40;;;;;;4920125;29;20201;-65
2022/11/07 12:46:44;;;;;;;9.00;2.03;;;15.40;77.50;;;;;;4932942;29;20091;-65
2022/11/07 12:49:35;;;;;;;10.25;2.45;;;15.40;77.50;;;;;;4939494;28;20040;-65
2022/11/07 12:52:04;;;;;;;8.82;2.28;;;15.40;77.50;;;;;;4931423;29;20035;-65
2022/11/07 12:54:58;;;;;;;8.70;2.38;;;15.40;77.50;;;;;;4941694;29;20504;-65
2022/11/07 12:57:29;;;;;;;8.10;2.40;;;15.50;77.50;;;;;;4928081;29;20107;-66
2022/11/07 13:00:04;;;;;;;7.38;2.55;;;15.40;77.40;;;;;;4954050;29;20150;-66
2022/11/07 13:02:42;;;;;;;9.70;2.42;;;15.50;77.40;;;;;;4953295;29;20046;-65
2022/11/07 13:05:34;;;;;;;7.45;2.65;;;15.50;77.20;;;;;;4962334;28;20385;-65
2022/11/07 13:08:20;;;;;;;7.35;2.72;;;15.50;77.00;;;;;;5029218;28;20065;-65